RJAA/NRT METAR and TAF weather

Enter ICAO airport designator
Station Type Date Time Source
RJAA METAR 2021/08/04 19:30 UTC NOAA

RJAA 041930Z 01002KT 9999 MIFG FEW030 22/22 Q1009 TEMPO 4000 BR


Station Type Date Time Source
RJAA Decoded METAR 2021/08/04 19:30 UTC NOAA

New Tokyo Inter-National Airport, Japan (RJAA) 35-46N 140-23E 44M
Aug 04, 2021 - 03:30 PM EDT / 2021.08.04 1930 UTC
Wind: from the N (010 degrees) at 2 MPH (2 KT):0
Visibility: greater than 7 mile(s):0
Sky conditions: mostly clear
Weather: shallow fog
Temperature: 71 F (22 C)
Dew Point: 71 F (22 C)
Relative Humidity: 100%
Pressure (altimeter): 29.80 in. Hg (1009 hPa)
ob: RJAA 041930Z 01002KT 9999 MIFG FEW030 22/22 Q1009 TEMPO 4000 BR
cycle: 19

Station Type Date Time Source
RJAA TAF 2021/08/04 18:29 UTC NOAA

TAF RJAA 041706Z 0418/0600 04004KT 9999 FEW030
TEMPO 0420/0422 3000 BR
BECMG 0501/0503 08010KT
BECMG 0509/0512 04006KT
TEMPO 0512/0521 FEW005 BKN008

Example: see airport list